Time;durP1;ratioP1;P1;durP2;ratioP2;P2;SDS_P1;SDS_P2;PMS_P1;PMS_P2;Temp;Humidity;BMP_temperature;BMP_pressure;BME280_temperature;BME280_humidity;BME280_pressure;Samples;Min_cycle;Max_cycle;Signal;HPM_P1;HPM_P2
2024/01/16 00:00:14;;;;;;;13.73;2.42;;;;;;;;;;5042361;28;20067;-74
2024/01/16 00:02:40;;;;;;;21.95;3.88;;;;;;;;;;5046340;28;20136;-74
2024/01/16 00:05:06;;;;;;;25.48;2.70;;;;;;;;;;5044031;28;20111;-75
2024/01/16 00:07:35;;;;;;;27.35;3.42;;;;;;;;;;5041933;28;20482;-75
2024/01/16 00:10:01;;;;;;;18.45;2.13;;;;;;;;;;5041703;28;20041;-74
2024/01/16 00:12:27;;;;;;;20.35;3.28;;;;;;;;;;5038421;28;20094;-74
2024/01/16 00:14:53;;;;;;;13.80;2.85;;;;;;;;;;5044481;28;20116;-75
2024/01/16 00:17:19;;;;;;;13.60;2.33;;;;;;;;;;5038475;28;20430;-74
2024/01/16 00:19:46;;;;;;;15.90;2.72;;;;;;;;;;5046773;28;20096;-75
2024/01/16 00:22:12;;;;;;;14.20;2.15;;;;;;;;;;5040540;28;20060;-74
2024/01/16 00:24:38;;;;;;;20.83;2.30;;;;;;;;;;5021009;28;20041;-76
2024/01/16 00:27:04;;;;;;;16.38;2.53;;;;;;;;;;5043478;28;20036;-73
2024/01/16 00:29:31;;;;;;;10.52;2.17;;;;;;;;;;5045918;28;20427;-74
2024/01/16 00:31:57;;;;;;;11.38;2.78;;;;;;;;;;5047412;28;20037;-75
2024/01/16 00:34:23;;;;;;;13.00;2.05;;;;;;;;;;5017145;28;20133;-74
2024/01/16 00:36:49;;;;;;;14.35;2.42;;;;;;;;;;5047941;28;20112;-74
2024/01/16 00:39:16;;;;;;;18.48;2.90;;;;;;;;;;5034434;28;20123;-74
2024/01/16 00:41:42;;;;;;;11.65;1.73;;;;;;;;;;5032338;28;20544;-75
2024/01/16 00:44:08;;;;;;;13.80;2.15;;;;;;;;;;5048137;28;20202;-74
2024/01/16 00:46:34;;;;;;;17.17;2.85;;;;;;;;;;5038644;28;20021;-75
2024/01/16 00:49:00;;;;;;;13.57;2.90;;;;;;;;;;5047988;28;20033;-75
2024/01/16 00:51:26;;;;;;;13.45;2.13;;;;;;;;;;5046026;28;20041;-74
2024/01/16 00:53:53;;;;;;;17.25;2.90;;;;;;;;;;5043012;28;20127;-75
2024/01/16 00:56:19;;;;;;;12.07;2.03;;;;;;;;;;5043856;28;20123;-75
2024/01/16 00:58:45;;;;;;;11.23;1.52;;;;;;;;;;5040338;28;20133;-74
2024/01/16 01:01:11;;;;;;;13.27;1.98;;;;;;;;;;5031993;28;20106;-75
2024/01/16 01:03:37;;;;;;;12.07;1.85;;;;;;;;;;5039998;28;20045;-75
2024/01/16 01:06:03;;;;;;;11.43;1.90;;;;;;;;;;5049178;28;20119;-75
2024/01/16 01:08:30;;;;;;;10.73;2.65;;;;;;;;;;5047175;28;20077;-75
2024/01/16 01:10:56;;;;;;;16.13;2.60;;;;;;;;;;5030832;28;20132;-75
2024/01/16 01:13:22;;;;;;;11.57;1.98;;;;;;;;;;5044020;28;20029;-75
2024/01/16 01:15:49;;;;;;;12.68;2.00;;;;;;;;;;5042875;28;20517;-75
2024/01/16 01:18:15;;;;;;;12.57;2.78;;;;;;;;;;5014834;28;20029;-75
2024/01/16 01:20:41;;;;;;;24.38;2.58;;;;;;;;;;5034233;28;20530;-75
2024/01/16 01:23:07;;;;;;;17.23;2.47;;;;;;;;;;5035209;28;20033;-75
2024/01/16 01:25:33;;;;;;;17.77;1.63;;;;;;;;;;5034996;28;20038;-75
2024/01/16 01:28:00;;;;;;;17.10;2.97;;;;;;;;;;5040789;28;20061;-75
2024/01/16 01:30:26;;;;;;;18.48;2.95;;;;;;;;;;5043442;28;20037;-75
2024/01/16 01:32:52;;;;;;;9.35;1.63;;;;;;;;;;5035728;28;20061;-74
2024/01/16 01:35:21;;;;;;;13.05;1.90;;;;;;;;;;5041280;28;20029;-76
2024/01/16 01:37:47;;;;;;;12.05;1.88;;;;;;;;;;5039716;28;20041;-76
2024/01/16 01:40:15;;;;;;;14.52;1.73;;;;;;;;;;5041253;28;20040;-76
2024/01/16 01:42:42;;;;;;;9.27;1.77;;;;;;;;;;5043685;28;20033;-77
2024/01/16 01:45:11;;;;;;;11.82;1.45;;;;;;;;;;5038782;28;20102;-76
2024/01/16 01:47:44;;;;;;;7.30;1.45;;;;;;;;;;5033705;28;20477;-76
2024/01/16 01:50:12;;;;;;;7.75;1.73;;;;;;;;;;5030673;28;20410;-75
2024/01/16 01:52:42;;;;;;;8.95;1.42;;;;;;;;;;5040878;28;20142;-76
2024/01/16 01:55:11;;;;;;;8.93;1.20;;;;;;;;;;5033928;28;20022;-76
2024/01/16 01:57:37;;;;;;;8.98;1.38;;;;;;;;;;5031053;28;20021;-76
2024/01/16 02:00:04;;;;;;;10.23;1.60;;;;;;;;;;5042472;28;20103;-76
2024/01/16 02:02:39;;;;;;;13.40;2.25;;;;;;;;;;5033210;28;20065;-74
2024/01/16 02:05:05;;;;;;;9.30;1.50;;;;;;;;;;5038778;28;20129;-76
2024/01/16 02:07:31;;;;;;;7.65;1.20;;;;;;;;;;5041041;28;20037;-76
2024/01/16 02:10:00;;;;;;;4.80;1.08;;;;;;;;;;5039592;28;20072;-74
2024/01/16 02:12:26;;;;;;;6.80;0.93;;;;;;;;;;5042198;28;20041;-75
2024/01/16 02:14:52;;;;;;;7.95;0.90;;;;;;;;;;5042843;28;20055;-76
2024/01/16 02:17:18;;;;;;;2.85;1.00;;;;;;;;;;5038141;28;20021;-76
2024/01/16 02:19:44;;;;;;;7.55;1.00;;;;;;;;;;5045639;28;20490;-76
2024/01/16 02:22:14;;;;;;;4.68;1.08;;;;;;;;;;5040868;28;20037;-76
2024/01/16 02:24:40;;;;;;;11.52;1.10;;;;;;;;;;5038013;28;20029;-76
2024/01/16 02:27:06;;;;;;;5.63;1.23;;;;;;;;;;5035344;28;20082;-76
2024/01/16 02:29:33;;;;;;;5.30;1.42;;;;;;;;;;5036383;28;20041;-75
2024/01/16 02:31:59;;;;;;;10.95;1.15;;;;;;;;;;5042677;28;20033;-75
2024/01/16 02:34:25;;;;;;;6.43;1.23;;;;;;;;;;5042696;28;20394;-75
2024/01/16 02:36:51;;;;;;;10.63;2.00;;;;;;;;;;5037078;28;20082;-75
2024/01/16 02:39:17;;;;;;;4.63;1.23;;;;;;;;;;5027919;28;20034;-75
2024/01/16 02:41:43;;;;;;;6.18;0.93;;;;;;;;;;5031132;28;20037;-75
2024/01/16 02:44:09;;;;;;;4.90;1.02;;;;;;;;;;5044118;28;20066;-74
2024/01/16 02:46:38;;;;;;;4.85;1.00;;;;;;;;;;5037904;28;20029;-74
2024/01/16 02:49:05;;;;;;;7.82;1.05;;;;;;;;;;5043560;28;20039;-74
2024/01/16 02:51:31;;;;;;;6.60;1.15;;;;;;;;;;5043013;28;20037;-74
2024/01/16 02:53:57;;;;;;;6.72;1.23;;;;;;;;;;5035019;28;20025;-75
2024/01/16 02:56:23;;;;;;;9.43;1.20;;;;;;;;;;5038273;28;20376;-74
2024/01/16 02:58:49;;;;;;;7.70;1.27;;;;;;;;;;5040551;28;20032;-75
2024/01/16 03:01:16;;;;;;;7.95;1.02;;;;;;;;;;5042060;28;20131;-74
2024/01/16 03:03:42;;;;;;;4.25;1.10;;;;;;;;;;5038824;28;20040;-75
2024/01/16 03:06:08;;;;;;;4.60;1.15;;;;;;;;;;5037587;28;20032;-75
2024/01/16 03:08:35;;;;;;;7.10;1.35;;;;;;;;;;5024178;28;20555;-75
2024/01/16 03:11:01;;;;;;;10.57;1.40;;;;;;;;;;5074806;28;20055;-75
2024/01/16 03:13:27;;;;;;;6.68;1.13;;;;;;;;;;5040751;28;20021;-75
2024/01/16 03:15:53;;;;;;;6.97;1.17;;;;;;;;;;5037511;28;20037;-75
2024/01/16 03:18:19;;;;;;;5.00;1.30;;;;;;;;;;5035664;28;20097;-75
2024/01/16 03:20:45;;;;;;;8.07;1.00;;;;;;;;;;5037168;28;20060;-74
2024/01/16 03:23:12;;;;;;;7.35;1.08;;;;;;;;;;5033327;28;20161;-74
2024/01/16 03:25:38;;;;;;;9.15;1.17;;;;;;;;;;5035772;28;20034;-75
2024/01/16 03:28:10;;;;;;;7.07;1.20;;;;;;;;;;5039065;28;20044;-74
2024/01/16 03:30:36;;;;;;;6.68;1.45;;;;;;;;;;5044190;28;20044;-74
2024/01/16 03:33:03;;;;;;;4.88;0.90;;;;;;;;;;5037668;28;20029;-75
2024/01/16 03:35:29;;;;;;;4.45;1.10;;;;;;;;;;5038392;28;20145;-75
2024/01/16 03:37:55;;;;;;;8.27;1.77;;;;;;;;;;5039842;28;20041;-75
2024/01/16 03:40:21;;;;;;;6.93;2.65;;;;;;;;;;5041312;28;20115;-75
2024/01/16 03:42:47;;;;;;;4.07;1.00;;;;;;;;;;5033590;28;20036;-75
2024/01/16 03:45:13;;;;;;;12.98;2.10;;;;;;;;;;5037280;28;20043;-75
2024/01/16 03:47:39;;;;;;;8.20;1.60;;;;;;;;;;5030871;28;20039;-75
2024/01/16 03:50:06;;;;;;;13.27;2.35;;;;;;;;;;5038098;28;20034;-75
2024/01/16 03:52:32;;;;;;;8.80;1.55;;;;;;;;;;5040884;28;20044;-75
2024/01/16 03:54:58;;;;;;;11.50;1.75;;;;;;;;;;5034936;28;20471;-75
2024/01/16 03:57:24;;;;;;;7.65;1.85;;;;;;;;;;5040442;28;20041;-75
2024/01/16 03:59:50;;;;;;;8.15;1.65;;;;;;;;;;5039189;28;20041;-75
2024/01/16 04:02:17;;;;;;;10.45;1.90;;;;;;;;;;5037423;28;20045;-74
2024/01/16 04:04:43;;;;;;;11.55;1.73;;;;;;;;;;5017648;28;20119;-74
2024/01/16 04:07:09;;;;;;;18.02;3.10;;;;;;;;;;5035793;28;20433;-75
2024/01/16 04:09:35;;;;;;;7.60;1.70;;;;;;;;;;5033682;28;20517;-75
2024/01/16 04:12:02;;;;;;;8.75;1.75;;;;;;;;;;5039634;28;20045;-74
2024/01/16 04:14:28;;;;;;;11.10;1.60;;;;;;;;;;5031578;28;20025;-75
2024/01/16 04:16:54;;;;;;;9.20;1.85;;;;;;;;;;5039701;28;20038;-75
2024/01/16 04:19:20;;;;;;;12.60;2.05;;;;;;;;;;5037569;28;20025;-75
2024/01/16 04:21:46;;;;;;;11.50;2.20;;;;;;;;;;5035790;28;20144;-74
2024/01/16 04:24:12;;;;;;;11.52;2.20;;;;;;;;;;5035614;28;20127;-75
2024/01/16 04:26:39;;;;;;;7.13;1.90;;;;;;;;;;5030895;28;20056;-74
2024/01/16 04:29:05;;;;;;;9.23;1.70;;;;;;;;;;5043672;28;20051;-74
2024/01/16 04:31:32;;;;;;;12.32;2.03;;;;;;;;;;5044689;28;20029;-74
2024/01/16 04:33:58;;;;;;;15.13;2.97;;;;;;;;;;5036147;28;20060;-75
2024/01/16 04:36:25;;;;;;;13.07;2.05;;;;;;;;;;5032722;28;20049;-75
2024/01/16 04:38:51;;;;;;;19.80;2.33;;;;;;;;;;5038792;28;20076;-74
2024/01/16 04:41:19;;;;;;;11.15;2.35;;;;;;;;;;5021084;28;20021;-76
2024/01/16 04:43:45;;;;;;;14.65;2.72;;;;;;;;;;5035341;28;20391;-76
2024/01/16 04:46:11;;;;;;;8.50;2.53;;;;;;;;;;5050743;28;20039;-75
2024/01/16 04:48:37;;;;;;;13.75;2.75;;;;;;;;;;5045172;28;20085;-75
2024/01/16 04:51:04;;;;;;;13.05;2.90;;;;;;;;;;5032831;28;20084;-75
2024/01/16 04:53:30;;;;;;;10.00;2.28;;;;;;;;;;5029036;28;20033;-75
2024/01/16 04:55:56;;;;;;;13.02;2.88;;;;;;;;;;5027239;28;20076;-75
2024/01/16 04:58:22;;;;;;;15.88;3.28;;;;;;;;;;5012680;28;20034;-74
2024/01/16 05:00:48;;;;;;;18.52;3.45;;;;;;;;;;5018210;28;20037;-75
2024/01/16 05:03:15;;;;;;;19.85;3.67;;;;;;;;;;5039831;28;20052;-74
2024/01/16 05:05:41;;;;;;;13.75;3.50;;;;;;;;;;5032618;28;20044;-74
2024/01/16 05:08:07;;;;;;;11.73;3.13;;;;;;;;;;5026158;28;20029;-74
2024/01/16 05:10:33;;;;;;;15.15;2.80;;;;;;;;;;5011027;28;20112;-75
2024/01/16 05:13:00;;;;;;;17.02;2.92;;;;;;;;;;5010327;28;20514;-75
2024/01/16 05:15:26;;;;;;;13.07;3.15;;;;;;;;;;5051262;28;20044;-75
2024/01/16 05:17:53;;;;;;;16.88;3.65;;;;;;;;;;5040513;28;20108;-75
2024/01/16 05:20:19;;;;;;;12.48;3.50;;;;;;;;;;5038107;28;20029;-74
2024/01/16 05:22:46;;;;;;;15.10;3.05;;;;;;;;;;5039506;28;20060;-75
2024/01/16 05:25:12;;;;;;;13.95;2.65;;;;;;;;;;5037904;28;20099;-75
2024/01/16 05:27:38;;;;;;;12.77;3.97;;;;;;;;;;5031587;28;20039;-75
2024/01/16 05:30:04;;;;;;;14.75;2.65;;;;;;;;;;5034359;28;20382;-74
2024/01/16 05:32:30;;;;;;;9.85;2.88;;;;;;;;;;5030343;28;20092;-74
2024/01/16 05:34:57;;;;;;;11.32;3.20;;;;;;;;;;5041061;28;20383;-76
2024/01/16 05:37:23;;;;;;;17.48;3.25;;;;;;;;;;5038437;28;20042;-75
2024/01/16 05:39:49;;;;;;;10.23;3.03;;;;;;;;;;5037962;28;20548;-75
2024/01/16 05:42:15;;;;;;;11.18;2.75;;;;;;;;;;5040175;28;20116;-76
2024/01/16 05:44:41;;;;;;;9.10;3.25;;;;;;;;;;5044338;28;20123;-74
2024/01/16 05:47:08;;;;;;;15.30;3.38;;;;;;;;;;5043009;28;20048;-76
2024/01/16 05:49:35;;;;;;;9.73;3.30;;;;;;;;;;5036288;28;20120;-75
2024/01/16 05:52:01;;;;;;;8.30;3.72;;;;;;;;;;5038726;28;20534;-74
2024/01/16 05:54:28;;;;;;;14.45;3.30;;;;;;;;;;5036262;28;20032;-74
2024/01/16 05:56:54;;;;;;;13.00;3.22;;;;;;;;;;5037996;28;20108;-76
2024/01/16 05:59:21;;;;;;;18.17;3.72;;;;;;;;;;5039226;28;20033;-75
2024/01/16 06:01:47;;;;;;;17.85;3.97;;;;;;;;;;5033275;28;20053;-75
2024/01/16 06:04:13;;;;;;;15.77;3.22;;;;;;;;;;5039790;28;20041;-75
2024/01/16 06:06:43;;;;;;;17.33;4.20;;;;;;;;;;5034212;28;20036;-76
2024/01/16 06:09:13;;;;;;;16.00;2.85;;;;;;;;;;5042244;28;20439;-77
2024/01/16 06:11:43;;;;;;;16.60;6.35;;;;;;;;;;5042120;28;20055;-78
2024/01/16 06:14:09;;;;;;;21.60;3.50;;;;;;;;;;5035093;28;20033;-75
2024/01/16 06:16:36;;;;;;;13.05;3.40;;;;;;;;;;5033143;28;20079;-75
2024/01/16 06:19:02;;;;;;;16.17;4.38;;;;;;;;;;5035468;28;20131;-76
2024/01/16 06:21:28;;;;;;;8.75;3.47;;;;;;;;;;5043287;28;20182;-75
2024/01/16 06:23:54;;;;;;;13.85;4.05;;;;;;;;;;5026943;28;20035;-75
2024/01/16 06:26:21;;;;;;;19.25;3.80;;;;;;;;;;5033151;28;20032;-75
2024/01/16 06:28:48;;;;;;;26.13;4.80;;;;;;;;;;5030305;28;20025;-75
2024/01/16 06:31:14;;;;;;;16.55;4.35;;;;;;;;;;5041354;28;20079;-76
2024/01/16 06:33:40;;;;;;;14.40;3.42;;;;;;;;;;5032488;28;20105;-75
2024/01/16 06:36:07;;;;;;;14.93;4.90;;;;;;;;;;5037404;28;20413;-77
2024/01/16 06:38:33;;;;;;;24.23;4.40;;;;;;;;;;5030263;28;20033;-76
2024/01/16 06:41:00;;;;;;;17.45;5.20;;;;;;;;;;5032719;28;20021;-73
2024/01/16 06:43:26;;;;;;;15.68;5.60;;;;;;;;;;5033921;28;20045;-75
2024/01/16 06:45:53;;;;;;;15.20;5.93;;;;;;;;;;5043150;28;20033;-75
2024/01/16 06:48:19;;;;;;;20.00;6.05;;;;;;;;;;5028264;28;20063;-75
2024/01/16 06:50:45;;;;;;;15.98;5.82;;;;;;;;;;5034690;28;20025;-76
2024/01/16 06:53:12;;;;;;;16.40;5.43;;;;;;;;;;5039158;28;20084;-75
2024/01/16 06:55:39;;;;;;;22.70;7.10;;;;;;;;;;5038017;28;20036;-76
2024/01/16 06:58:05;;;;;;;20.50;7.20;;;;;;;;;;5039201;28;20014;-76
2024/01/16 07:00:31;;;;;;;27.20;8.18;;;;;;;;;;5029620;28;20041;-76
2024/01/16 07:02:57;;;;;;;18.70;8.70;;;;;;;;;;5033819;28;20158;-78
2024/01/16 07:05:24;;;;;;;30.20;9.77;;;;;;;;;;5037932;28;20032;-75
2024/01/16 07:07:50;;;;;;;33.42;11.55;;;;;;;;;;5040118;28;20025;-75
2024/01/16 07:10:21;;;;;;;30.17;10.50;;;;;;;;;;5026706;28;20124;-76
2024/01/16 07:12:51;;;;;;;26.67;10.60;;;;;;;;;;5041515;28;20042;-75
2024/01/16 07:15:18;;;;;;;26.27;12.20;;;;;;;;;;5021809;28;20021;-75
2024/01/16 07:17:44;;;;;;;24.95;11.25;;;;;;;;;;5037429;28;20029;-75
2024/01/16 07:20:11;;;;;;;28.92;11.68;;;;;;;;;;5043010;28;20389;-75
2024/01/16 07:22:41;;;;;;;26.42;11.57;;;;;;;;;;5028582;28;20073;-76
2024/01/16 07:25:07;;;;;;;31.10;11.43;;;;;;;;;;5043474;28;20041;-76
2024/01/16 07:27:34;;;;;;;33.13;13.27;;;;;;;;;;5049669;28;20041;-75
2024/01/16 07:30:00;;;;;;;31.95;13.10;;;;;;;;;;5055136;28;20048;-76
2024/01/16 07:32:27;;;;;;;36.78;13.25;;;;;;;;;;5063296;28;20040;-76
2024/01/16 07:34:53;;;;;;;29.63;13.15;;;;;;;;;;5054712;28;20116;-76
2024/01/16 07:37:19;;;;;;;27.25;12.70;;;;;;;;;;5042887;28;20033;-75
2024/01/16 07:39:45;;;;;;;27.75;13.02;;;;;;;;;;5027886;28;20033;-76
2024/01/16 07:42:12;;;;;;;46.10;14.95;;;;;;;;;;5033617;28;20022;-75
2024/01/16 07:44:38;;;;;;;43.42;15.18;;;;;;;;;;5025202;28;20257;-76
2024/01/16 07:47:04;;;;;;;38.33;15.02;;;;;;;;;;5030844;28;20134;-75
2024/01/16 07:49:30;;;;;;;31.25;13.80;;;;;;;;;;5028676;28;20087;-74
2024/01/16 07:51:56;;;;;;;38.15;15.70;;;;;;;;;;5017778;28;20052;-75
2024/01/16 07:54:23;;;;;;;36.88;15.88;;;;;;;;;;5035757;28;20030;-75
2024/01/16 07:56:50;;;;;;;38.80;15.93;;;;;;;;;;5028357;28;20033;-76
2024/01/16 07:59:16;;;;;;;42.20;16.02;;;;;;;;;;5046173;28;20041;-75
2024/01/16 08:01:42;;;;;;;35.55;14.45;;;;;;;;;;5041631;28;20041;-75
2024/01/16 08:04:08;;;;;;;26.02;12.90;;;;;;;;;;5041795;28;20037;-75
2024/01/16 08:06:34;;;;;;;28.33;11.90;;;;;;;;;;5035298;28;20086;-75
2024/01/16 08:09:00;;;;;;;29.65;11.25;;;;;;;;;;5035107;28;20144;-75
2024/01/16 08:11:26;;;;;;;62.35;12.90;;;;;;;;;;5032054;28;20041;-76
2024/01/16 08:13:53;;;;;;;28.67;10.95;;;;;;;;;;5064205;28;20127;-75
2024/01/16 08:16:20;;;;;;;19.70;10.10;;;;;;;;;;5031371;28;20037;-76
2024/01/16 08:18:47;;;;;;;26.77;9.48;;;;;;;;;;5015547;28;20026;-76
2024/01/16 08:21:13;;;;;;;23.95;9.32;;;;;;;;;;5012538;28;20053;-75
2024/01/16 08:23:39;;;;;;;32.90;9.43;;;;;;;;;;5013362;28;20045;-74
2024/01/16 08:26:06;;;;;;;32.22;8.25;;;;;;;;;;5036866;28;20033;-75
2024/01/16 08:28:32;;;;;;;36.05;9.27;;;;;;;;;;5042388;28;20184;-75
2024/01/16 08:30:58;;;;;;;26.55;9.07;;;;;;;;;;5037172;28;20045;-75
2024/01/16 08:33:24;;;;;;;34.17;8.55;;;;;;;;;;5042568;28;20025;-75
2024/01/16 08:35:51;;;;;;;22.30;7.25;;;;;;;;;;5047300;28;20068;-75
2024/01/16 08:38:18;;;;;;;26.77;7.93;;;;;;;;;;5038338;28;20036;-75
2024/01/16 08:40:44;;;;;;;23.95;6.85;;;;;;;;;;5040013;28;20037;-74
2024/01/16 08:43:10;;;;;;;20.33;6.97;;;;;;;;;;5034469;28;20040;-75
2024/01/16 08:45:37;;;;;;;14.98;6.18;;;;;;;;;;5037508;28;20036;-75
2024/01/16 08:48:03;;;;;;;23.15;6.88;;;;;;;;;;5034692;28;20039;-76
2024/01/16 08:50:29;;;;;;;26.48;8.50;;;;;;;;;;5029187;28;20038;-76
2024/01/16 08:52:56;;;;;;;18.52;5.97;;;;;;;;;;5013000;28;20057;-75
2024/01/16 08:55:22;;;;;;;29.10;6.32;;;;;;;;;;5058969;28;20047;-76
2024/01/16 08:57:48;;;;;;;27.85;6.95;;;;;;;;;;5040746;28;20064;-74
2024/01/16 09:00:15;;;;;;;15.10;5.70;;;;;;;;;;5037638;28;20025;-76
2024/01/16 09:02:41;;;;;;;22.33;6.07;;;;;;;;;;5037055;28;20051;-75
2024/01/16 09:05:07;;;;;;;27.35;6.03;;;;;;;;;;5038550;28;20029;-76
2024/01/16 09:07:33;;;;;;;18.40;6.85;;;;;;;;;;5045515;28;20124;-76
2024/01/16 09:10:00;;;;;;;17.25;5.28;;;;;;;;;;5026603;28;20025;-77
2024/01/16 09:12:26;;;;;;;13.32;5.25;;;;;;;;;;5051116;28;20138;-77
2024/01/16 09:14:52;;;;;;;12.88;5.95;;;;;;;;;;5052184;28;20029;-75
2024/01/16 09:17:19;;;;;;;18.52;5.43;;;;;;;;;;5043937;28;20066;-75
2024/01/16 09:19:45;;;;;;;16.25;5.05;;;;;;;;;;5034320;28;20056;-75
2024/01/16 09:22:11;;;;;;;17.35;4.95;;;;;;;;;;5030910;28;20038;-76
2024/01/16 09:24:37;;;;;;;18.35;5.55;;;;;;;;;;5012388;28;20049;-75
2024/01/16 09:27:06;;;;;;;14.30;4.35;;;;;;;;;;5011369;28;20034;-76
2024/01/16 09:29:33;;;;;;;13.05;4.28;;;;;;;;;;5011504;28;20088;-76
2024/01/16 09:31:59;;;;;;;14.00;4.90;;;;;;;;;;5011199;28;20038;-76
2024/01/16 09:34:26;;;;;;;16.83;4.70;;;;;;;;;;5011421;28;20038;-76
2024/01/16 09:36:53;;;;;;;19.10;4.57;;;;;;;;;;5043184;28;20054;-76
2024/01/16 09:39:19;;;;;;;20.77;6.25;;;;;;;;;;5030129;28;20029;-76
2024/01/16 09:41:45;;;;;;;13.45;4.68;;;;;;;;;;5032224;28;20033;-77
2024/01/16 09:44:11;;;;;;;18.23;3.90;;;;;;;;;;5031872;28;20108;-76
2024/01/16 09:46:39;;;;;;;16.25;4.10;;;;;;;;;;5031578;28;20033;-74
2024/01/16 09:49:06;;;;;;;12.75;3.80;;;;;;;;;;5031393;28;20505;-76
2024/01/16 09:51:33;;;;;;;12.68;3.67;;;;;;;;;;5031330;28;20052;-77
2024/01/16 09:53:59;;;;;;;10.18;3.53;;;;;;;;;;5018949;28;20045;-77
2024/01/16 09:56:28;;;;;;;14.50;4.00;;;;;;;;;;5027262;28;20034;-76
2024/01/16 09:58:58;;;;;;;15.40;4.43;;;;;;;;;;5011730;28;20156;-76
2024/01/16 10:01:24;;;;;;;;;;;;;;;;;;5012585;28;20026;-77
2024/01/16 10:03:51;;;;;;;12.98;3.85;;;;;;;;;;5011725;28;19932;-77
2024/01/16 10:06:17;;;;;;;14.63;4.05;;;;;;;;;;5042703;28;20030;-77
2024/01/16 10:08:44;;;;;;;13.20;3.90;;;;;;;;;;5027229;28;20609;-76
2024/01/16 10:11:10;;;;;;;10.13;4.00;;;;;;;;;;5030504;28;20056;-77
2024/01/16 10:13:37;;;;;;;10.90;3.90;;;;;;;;;;5030906;28;20038;-76
2024/01/16 10:16:03;;;;;;;15.70;4.43;;;;;;;;;;5028355;28;20179;-76
2024/01/16 10:18:30;;;;;;;11.57;3.90;;;;;;;;;;5030297;28;20509;-76
2024/01/16 10:20:56;;;;;;;13.65;4.38;;;;;;;;;;5030373;28;20030;-76
2024/01/16 10:23:26;;;;;;;9.43;4.20;;;;;;;;;;5028821;28;20036;-76
2024/01/16 10:26:08;;;;;;;12.98;3.95;;;;;;;;;;5030058;28;20033;-76
2024/01/16 10:28:35;;;;;;;14.48;3.67;;;;;;;;;;5029922;28;20387;-76
2024/01/16 10:31:04;;;;;;;13.93;3.95;;;;;;;;;;5041492;28;20025;-76
2024/01/16 10:33:31;;;;;;;14.75;4.05;;;;;;;;;;5050142;28;20095;-76
2024/01/16 10:36:14;;;;;;;7.45;3.28;;;;;;;;;;5068677;28;20055;-78
2024/01/16 10:38:41;;;;;;;13.27;3.58;;;;;;;;;;5039025;28;20466;-77
2024/01/16 10:41:11;;;;;;;12.07;3.75;;;;;;;;;;5030307;28;20185;-76
2024/01/16 10:43:38;;;;;;;10.50;3.50;;;;;;;;;;5028631;28;20396;-76
2024/01/16 10:46:08;;;;;;;14.25;3.50;;;;;;;;;;5028093;28;20117;-76
2024/01/16 10:48:35;;;;;;;14.35;4.00;;;;;;;;;;5028675;28;20053;-77
2024/01/16 10:51:02;;;;;;;8.05;3.38;;;;;;;;;;5012064;28;20033;-78
2024/01/16 10:53:30;;;;;;;7.20;3.28;;;;;;;;;;5012195;28;20057;-77
2024/01/16 10:55:58;;;;;;;12.20;3.85;;;;;;;;;;5009964;28;20048;-76
2024/01/16 10:58:30;;;;;;;8.82;3.05;;;;;;;;;;5008793;28;20029;-78
2024/01/16 11:00:57;;;;;;;11.27;3.47;;;;;;;;;;5010269;28;20045;-76
2024/01/16 11:03:30;;;;;;;17.45;3.50;;;;;;;;;;5010374;28;20531;-77
2024/01/16 11:05:58;;;;;;;15.07;4.45;;;;;;;;;;5010075;28;20041;-77
2024/01/16 11:08:30;;;;;;;9.98;3.70;;;;;;;;;;5010414;28;20042;-78
2024/01/16 11:10:58;;;;;;;10.13;3.45;;;;;;;;;;5010097;28;20062;-76
2024/01/16 11:13:24;;;;;;;7.05;2.95;;;;;;;;;;5010523;28;20045;-78
2024/01/16 11:15:50;;;;;;;10.38;3.33;;;;;;;;;;5025681;28;20105;-78
2024/01/16 11:18:17;;;;;;;13.02;3.42;;;;;;;;;;5043976;28;20030;-77
2024/01/16 11:20:44;;;;;;;10.88;3.30;;;;;;;;;;5013125;28;20080;-78
2024/01/16 11:23:12;;;;;;;12.48;4.30;;;;;;;;;;5012289;28;20065;-78
2024/01/16 11:25:39;;;;;;;6.80;3.42;;;;;;;;;;5018382;28;20033;-77
2024/01/16 11:28:10;;;;;;;9.57;3.50;;;;;;;;;;5009744;28;20044;-78
2024/01/16 11:30:36;;;;;;;8.75;3.33;;;;;;;;;;5009511;28;20084;-77
2024/01/16 11:33:04;;;;;;;9.82;3.20;;;;;;;;;;5042814;28;20061;-78
2024/01/16 11:35:36;;;;;;;16.35;4.43;;;;;;;;;;5028961;28;20030;-77
2024/01/16 11:38:21;;;;;;;11.43;3.67;;;;;;;;;;5036693;28;20025;-78
2024/01/16 11:40:48;;;;;;;9.80;3.63;;;;;;;;;;5036605;28;20041;-76
2024/01/16 11:43:32;;;;;;;9.75;3.00;;;;;;;;;;5052678;28;20486;-79
2024/01/16 11:45:59;;;;;;;17.23;5.15;;;;;;;;;;5036787;28;20033;-77
2024/01/16 11:48:25;;;;;;;9.60;3.85;;;;;;;;;;5048587;28;20052;-77
2024/01/16 11:50:53;;;;;;;16.60;4.63;;;;;;;;;;5027478;28;20072;-79
2024/01/16 11:53:40;;;;;;;7.57;3.60;;;;;;;;;;5045565;28;20044;-80
2024/01/16 11:56:13;;;;;;;8.85;2.92;;;;;;;;;;5036127;28;20388;-78
2024/01/16 11:58:49;;;;;;;10.07;3.20;;;;;;;;;;5049750;28;20039;-77
2024/01/16 12:01:17;;;;;;;14.55;3.95;;;;;;;;;;5041623;28;20026;-78
2024/01/16 12:03:44;;;;;;;10.27;3.13;;;;;;;;;;5035312;28;20037;-78
2024/01/16 12:06:10;;;;;;;9.82;3.72;;;;;;;;;;5021581;28;20037;-76
2024/01/16 12:08:37;;;;;;;10.70;3.53;;;;;;;;;;5031736;28;20072;-76
2024/01/16 12:11:03;;;;;;;9.20;3.22;;;;;;;;;;5043085;28;20037;-76
2024/01/16 12:13:30;;;;;;;13.45;4.50;;;;;;;;;;5036256;28;20025;-77
2024/01/16 12:16:00;;;;;;;11.07;3.58;;;;;;;;;;5040699;28;20164;-77
2024/01/16 12:18:27;;;;;;;8.20;3.25;;;;;;;;;;5029828;28;20033;-76
2024/01/16 12:20:53;;;;;;;7.35;3.28;;;;;;;;;;5028016;28;20131;-77
2024/01/16 12:23:21;;;;;;;9.27;3.78;;;;;;;;;;5036550;28;20044;-77
2024/01/16 12:25:53;;;;;;;8.45;3.72;;;;;;;;;;5035543;28;20029;-76
2024/01/16 12:28:21;;;;;;;10.10;4.32;;;;;;;;;;5031477;28;20037;-76
2024/01/16 12:30:53;;;;;;;11.90;5.00;;;;;;;;;;5032775;28;20112;-76
2024/01/16 12:33:22;;;;;;;9.85;4.43;;;;;;;;;;5031753;28;20052;-76
2024/01/16 12:35:49;;;;;;;13.60;4.65;;;;;;;;;;5043763;28;20379;-76
2024/01/16 12:38:16;;;;;;;12.10;3.60;;;;;;;;;;5044905;28;20025;-76
2024/01/16 12:40:45;;;;;;;11.63;3.42;;;;;;;;;;5038718;28;20068;-77
2024/01/16 12:43:11;;;;;;;6.93;3.05;;;;;;;;;;5043662;28;20029;-76
2024/01/16 12:45:37;;;;;;;6.13;2.88;;;;;;;;;;5046548;28;20128;-77
2024/01/16 12:48:04;;;;;;;13.55;3.92;;;;;;;;;;5050711;28;20044;-76
2024/01/16 12:50:31;;;;;;;11.85;3.35;;;;;;;;;;5035601;28;20096;-75
2024/01/16 12:53:10;;;;;;;7.45;2.72;;;;;;;;;;5051656;28;20029;-76
2024/01/16 12:55:37;;;;;;;11.43;3.65;;;;;;;;;;5034041;28;20033;-75
2024/01/16 12:58:19;;;;;;;9.20;3.20;;;;;;;;;;5049771;28;20021;-75
2024/01/16 13:00:49;;;;;;;9.10;2.90;;;;;;;;;;5036821;28;20033;-75
2024/01/16 13:03:19;;;;;;;9.75;3.45;;;;;;;;;;5045494;28;20025;-76
2024/01/16 13:05:45;;;;;;;10.20;3.17;;;;;;;;;;5045733;28;20029;-75
2024/01/16 13:08:18;;;;;;;8.25;2.80;;;;;;;;;;5043232;28;20036;-76
2024/01/16 13:10:44;;;;;;;10.05;3.00;;;;;;;;;;5036055;28;20041;-76
2024/01/16 13:13:19;;;;;;;7.50;2.80;;;;;;;;;;5033708;28;20048;-75
2024/01/16 13:15:46;;;;;;;9.10;3.08;;;;;;;;;;5037946;28;20036;-74
2024/01/16 13:18:22;;;;;;;5.28;2.60;;;;;;;;;;5033329;28;20037;-76
2024/01/16 13:20:53;;;;;;;7.07;2.70;;;;;;;;;;5032671;28;20063;-76
2024/01/16 13:23:19;;;;;;;7.07;2.45;;;;;;;;;;5038523;28;20035;-78
2024/01/16 13:25:46;;;;;;;5.22;1.52;;;;;;;;;;5040865;28;20479;-76
2024/01/16 13:28:13;;;;;;;5.03;1.33;;;;;;;;;;5045468;28;20214;-76
2024/01/16 13:30:42;;;;;;;7.95;1.50;;;;;;;;;;5042722;28;20042;-76
2024/01/16 13:33:09;;;;;;;5.63;1.63;;;;;;;;;;5024048;28;20034;-76
2024/01/16 13:35:39;;;;;;;5.40;1.40;;;;;;;;;;5055213;28;20064;-75
2024/01/16 13:38:05;;;;;;;7.97;1.47;;;;;;;;;;5026676;28;20018;-76
2024/01/16 13:40:31;;;;;;;5.57;1.85;;;;;;;;;;4998541;28;20282;-76
2024/01/16 13:42:58;;;;;;;10.27;1.60;;;;;;;;;;5041314;28;20021;-76
2024/01/16 13:45:25;;;;;;;7.15;1.77;;;;;;;;;;5047884;28;20025;-75
2024/01/16 13:47:51;;;;;;;6.13;1.40;;;;;;;;;;5042275;28;20057;-75
2024/01/16 13:50:20;;;;;;;8.25;1.70;;;;;;;;;;5065676;28;20342;-75
2024/01/16 13:52:46;;;;;;;8.63;1.50;;;;;;;;;;5033218;28;20356;-75
2024/01/16 13:55:12;;;;;;;7.28;1.30;;;;;;;;;;5045647;28;20505;-76
2024/01/16 13:57:39;;;;;;;7.15;1.52;;;;;;;;;;5038539;28;20560;-77
2024/01/16 14:00:07;;;;;;;4.47;1.20;;;;;;;;;;5043711;28;20026;-76
2024/01/16 14:02:40;;;;;;;6.95;1.40;;;;;;;;;;5040731;28;20542;-77
2024/01/16 14:05:12;;;;;;;6.03;2.17;;;;;;;;;;5034838;28;20041;-77
2024/01/16 14:07:38;;;;;;;8.88;1.63;;;;;;;;;;5029162;28;20124;-76
2024/01/16 14:10:06;;;;;;;11.88;1.65;;;;;;;;;;5030440;28;20411;-76
2024/01/16 14:12:35;;;;;;;7.50;1.40;;;;;;;;;;5011247;28;20062;-76
2024/01/16 14:15:04;;;;;;;8.98;1.42;;;;;;;;;;5009950;28;20088;-79
2024/01/16 14:17:30;;;;;;;3.15;1.40;;;;;;;;;;5026089;28;20438;-75
2024/01/16 14:19:56;;;;;;;3.53;1.50;;;;;;;;;;5030039;28;20029;-76
2024/01/16 14:22:23;;;;;;;4.13;1.52;;;;;;;;;;5046526;28;20029;-76
2024/01/16 14:24:51;;;;;;;8.82;1.85;;;;;;;;;;5024213;28;20155;-77
2024/01/16 14:27:17;;;;;;;8.57;1.65;;;;;;;;;;5037033;28;20049;-75
2024/01/16 14:29:43;;;;;;;5.90;2.10;;;;;;;;;;5047148;28;20033;-75
2024/01/16 14:32:09;;;;;;;7.47;2.15;;;;;;;;;;5035044;28;20031;-75